sensor_id;sensor_type;location;lat;lon;timestamp;P1;durP1;ratioP1;P2;durP2;ratioP2
18689;SDS011;9782;52.930;15.562;2022-07-24T00:01:09;71.20;;;66.17;;
18689;SDS011;9782;52.930;15.562;2022-07-24T00:03:36;160.27;;;143.70;;
18689;SDS011;9782;52.930;15.562;2022-07-24T00:06:03;306.47;;;274.20;;
18689;SDS011;9782;52.930;15.562;2022-07-24T00:08:31;343.00;;;284.97;;
18689;SDS011;9782;52.930;15.562;2022-07-24T00:10:58;310.77;;;276.77;;
18689;SDS011;9782;52.930;15.562;2022-07-24T00:13:25;271.33;;;245.57;;
18689;SDS011;9782;52.930;15.562;2022-07-24T00:15:52;383.83;;;293.90;;
18689;SDS011;9782;52.930;15.562;2022-07-24T00:18:20;353.47;;;270.80;;
18689;SDS011;9782;52.930;15.562;2022-07-24T00:20:47;352.40;;;277.87;;
18689;SDS011;9782;52.930;15.562;2022-07-24T00:23:15;305.37;;;263.03;;
18689;SDS011;9782;52.930;15.562;2022-07-24T00:25:42;283.77;;;253.47;;
18689;SDS011;9782;52.930;15.562;2022-07-24T00:28:09;299.53;;;263.20;;
18689;SDS011;9782;52.930;15.562;2022-07-24T00:30:36;298.57;;;265.47;;
18689;SDS011;9782;52.930;15.562;2022-07-24T00:33:03;313.63;;;257.13;;
18689;SDS011;9782;52.930;15.562;2022-07-24T00:35:31;390.70;;;294.37;;
18689;SDS011;9782;52.930;15.562;2022-07-24T00:37:59;375.67;;;287.27;;
18689;SDS011;9782;52.930;15.562;2022-07-24T00:40:26;348.03;;;274.17;;
18689;SDS011;9782;52.930;15.562;2022-07-24T00:42:55;330.90;;;272.40;;
18689;SDS011;9782;52.930;15.562;2022-07-24T00:45:22;271.87;;;243.53;;
18689;SDS011;9782;52.930;15.562;2022-07-24T00:47:50;230.13;;;205.07;;
18689;SDS011;9782;52.930;15.562;2022-07-24T00:50:17;355.60;;;261.13;;
18689;SDS011;9782;52.930;15.562;2022-07-24T00:52:46;256.40;;;227.63;;
18689;SDS011;9782;52.930;15.562;2022-07-24T00:55:13;266.40;;;237.63;;
18689;SDS011;9782;52.930;15.562;2022-07-24T00:57:40;218.23;;;195.77;;
18689;SDS011;9782;52.930;15.562;2022-07-24T01:00:11;170.20;;;155.20;;
18689;SDS011;9782;52.930;15.562;2022-07-24T01:02:39;248.47;;;211.90;;
18689;SDS011;9782;52.930;15.562;2022-07-24T01:05:06;121.40;;;108.53;;
18689;SDS011;9782;52.930;15.562;2022-07-24T01:07:34;108.97;;;99.07;;
18689;SDS011;9782;52.930;15.562;2022-07-24T01:10:04;345.43;;;268.93;;
18689;SDS011;9782;52.930;15.562;2022-07-24T01:12:33;270.50;;;217.30;;
18689;SDS011;9782;52.930;15.562;2022-07-24T01:15:01;345.43;;;276.63;;
18689;SDS011;9782;52.930;15.562;2022-07-24T01:17:30;363.43;;;276.97;;
18689;SDS011;9782;52.930;15.562;2022-07-24T01:19:58;396.93;;;282.70;;
18689;SDS011;9782;52.930;15.562;2022-07-24T01:22:27;371.83;;;276.23;;
18689;SDS011;9782;52.930;15.562;2022-07-24T01:24:54;412.83;;;276.20;;
18689;SDS011;9782;52.930;15.562;2022-07-24T01:27:22;390.67;;;275.00;;
18689;SDS011;9782;52.930;15.562;2022-07-24T01:29:50;235.13;;;192.47;;
18689;SDS011;9782;52.930;15.562;2022-07-24T01:32:17;314.50;;;255.20;;
18689;SDS011;9782;52.930;15.562;2022-07-24T01:34:45;266.00;;;236.30;;
18689;SDS011;9782;52.930;15.562;2022-07-24T01:37:12;275.00;;;245.10;;
18689;SDS011;9782;52.930;15.562;2022-07-24T01:39:40;312.13;;;253.03;;
18689;SDS011;9782;52.930;15.562;2022-07-24T01:42:07;255.03;;;228.20;;
18689;SDS011;9782;52.930;15.562;2022-07-24T01:44:34;373.00;;;273.13;;
18689;SDS011;9782;52.930;15.562;2022-07-24T01:47:01;177.50;;;160.27;;
18689;SDS011;9782;52.930;15.562;2022-07-24T01:49:28;252.13;;;227.03;;
18689;SDS011;9782;52.930;15.562;2022-07-24T01:51:55;220.23;;;198.80;;
18689;SDS011;9782;52.930;15.562;2022-07-24T01:54:23;315.37;;;253.07;;
18689;SDS011;9782;52.930;15.562;2022-07-24T01:56:51;300.90;;;256.37;;
18689;SDS011;9782;52.930;15.562;2022-07-24T01:59:18;397.90;;;275.07;;
18689;SDS011;9782;52.930;15.562;2022-07-24T02:01:45;309.03;;;250.97;;
18689;SDS011;9782;52.930;15.562;2022-07-24T02:04:12;247.37;;;211.47;;
18689;SDS011;9782;52.930;15.562;2022-07-24T02:06:39;259.77;;;232.00;;
18689;SDS011;9782;52.930;15.562;2022-07-24T02:09:06;176.77;;;162.10;;
18689;SDS011;9782;52.930;15.562;2022-07-24T02:11:34;202.60;;;185.17;;
18689;SDS011;9782;52.930;15.562;2022-07-24T02:14:02;266.70;;;230.03;;
18689;SDS011;9782;52.930;15.562;2022-07-24T02:16:29;299.87;;;251.80;;
18689;SDS011;9782;52.930;15.562;2022-07-24T02:18:56;244.43;;;218.50;;
18689;SDS011;9782;52.930;15.562;2022-07-24T02:21:23;187.67;;;170.07;;
18689;SDS011;9782;52.930;15.562;2022-07-24T02:23:51;211.27;;;191.97;;
18689;SDS011;9782;52.930;15.562;2022-07-24T02:26:18;202.83;;;184.17;;
18689;SDS011;9782;52.930;15.562;2022-07-24T02:28:45;266.73;;;230.83;;
18689;SDS011;9782;52.930;15.562;2022-07-24T02:31:13;240.83;;;215.13;;
18689;SDS011;9782;52.930;15.562;2022-07-24T02:33:40;223.70;;;196.30;;
18689;SDS011;9782;52.930;15.562;2022-07-24T02:36:08;240.97;;;205.10;;
18689;SDS011;9782;52.930;15.562;2022-07-24T02:38:35;135.93;;;122.33;;
18689;SDS011;9782;52.930;15.562;2022-07-24T02:41:02;223.07;;;200.70;;
18689;SDS011;9782;52.930;15.562;2022-07-24T02:43:29;190.83;;;173.07;;
18689;SDS011;9782;52.930;15.562;2022-07-24T02:45:57;287.27;;;247.47;;
18689;SDS011;9782;52.930;15.562;2022-07-24T02:48:25;271.43;;;242.37;;
18689;SDS011;9782;52.930;15.562;2022-07-24T02:50:52;137.57;;;125.97;;
18689;SDS011;9782;52.930;15.562;2022-07-24T02:53:20;185.67;;;168.73;;
18689;SDS011;9782;52.930;15.562;2022-07-24T02:55:47;153.27;;;136.80;;
18689;SDS011;9782;52.930;15.562;2022-07-24T02:58:14;265.83;;;237.33;;
18689;SDS011;9782;52.930;15.562;2022-07-24T03:00:41;192.00;;;172.87;;
18689;SDS011;9782;52.930;15.562;2022-07-24T03:03:08;236.00;;;210.40;;
18689;SDS011;9782;52.930;15.562;2022-07-24T03:05:37;207.77;;;187.07;;
18689;SDS011;9782;52.930;15.562;2022-07-24T03:08:04;256.47;;;212.57;;
18689;SDS011;9782;52.930;15.562;2022-07-24T03:10:32;252.17;;;224.57;;
18689;SDS011;9782;52.930;15.562;2022-07-24T03:12:59;147.33;;;132.40;;
18689;SDS011;9782;52.930;15.562;2022-07-24T03:15:26;101.57;;;93.70;;
18689;SDS011;9782;52.930;15.562;2022-07-24T03:17:53;129.83;;;116.67;;
18689;SDS011;9782;52.930;15.562;2022-07-24T03:20:22;154.80;;;141.23;;
18689;SDS011;9782;52.930;15.562;2022-07-24T03:23:00;124.87;;;114.00;;
18689;SDS011;9782;52.930;15.562;2022-07-24T03:25:31;127.37;;;115.90;;
18689;SDS011;9782;52.930;15.562;2022-07-24T03:27:58;69.77;;;63.37;;
18689;SDS011;9782;52.930;15.562;2022-07-24T03:30:25;40.20;;;37.53;;
18689;SDS011;9782;52.930;15.562;2022-07-24T03:32:53;44.50;;;41.10;;
18689;SDS011;9782;52.930;15.562;2022-07-24T03:35:21;15.03;;;13.60;;
18689;SDS011;9782;52.930;15.562;2022-07-24T03:37:52;59.60;;;54.40;;
18689;SDS011;9782;52.930;15.562;2022-07-24T03:40:23;21.57;;;19.67;;
18689;SDS011;9782;52.930;15.562;2022-07-24T03:42:50;4.43;;;3.00;;
18689;SDS011;9782;52.930;15.562;2022-07-24T03:45:17;5.20;;;3.00;;
18689;SDS011;9782;52.930;15.562;2022-07-24T03:47:45;6.93;;;3.03;;
18689;SDS011;9782;52.930;15.562;2022-07-24T03:50:12;5.47;;;3.10;;
18689;SDS011;9782;52.930;15.562;2022-07-24T03:52:39;5.60;;;3.70;;
18689;SDS011;9782;52.930;15.562;2022-07-24T03:55:08;4.70;;;3.37;;
18689;SDS011;9782;52.930;15.562;2022-07-24T04:00:12;4.97;;;3.30;;
18689;SDS011;9782;52.930;15.562;2022-07-24T04:02:40;5.67;;;2.50;;
18689;SDS011;9782;52.930;15.562;2022-07-24T04:05:11;3.77;;;1.90;;
18689;SDS011;9782;52.930;15.562;2022-07-24T04:07:38;4.05;;;1.90;;
18689;SDS011;9782;52.930;15.562;2022-07-24T04:10:08;4.38;;;2.00;;
18689;SDS011;9782;52.930;15.562;2022-07-24T04:12:35;1.80;;;1.60;;
18689;SDS011;9782;52.930;15.562;2022-07-24T04:15:03;3.75;;;1.52;;
18689;SDS011;9782;52.930;15.562;2022-07-24T04:17:30;2.70;;;1.48;;
18689;SDS011;9782;52.930;15.562;2022-07-24T04:19:58;2.23;;;1.50;;
18689;SDS011;9782;52.930;15.562;2022-07-24T04:22:29;2.25;;;1.50;;
18689;SDS011;9782;52.930;15.562;2022-07-24T04:25:11;4.70;;;1.52;;
18689;SDS011;9782;52.930;15.562;2022-07-24T04:27:38;1.98;;;1.15;;
18689;SDS011;9782;52.930;15.562;2022-07-24T04:30:11;1.75;;;1.15;;
18689;SDS011;9782;52.930;15.562;2022-07-24T04:32:39;2.45;;;1.27;;
18689;SDS011;9782;52.930;15.562;2022-07-24T04:35:10;2.20;;;1.75;;
18689;SDS011;9782;52.930;15.562;2022-07-24T04:37:40;2.65;;;1.45;;
18689;SDS011;9782;52.930;15.562;2022-07-24T04:40:08;2.03;;;1.13;;
18689;SDS011;9782;52.930;15.562;2022-07-24T04:42:42;2.25;;;1.30;;
18689;SDS011;9782;52.930;15.562;2022-07-24T04:47:40;2.95;;;1.20;;
18689;SDS011;9782;52.930;15.562;2022-07-24T04:50:07;2.65;;;1.20;;
18689;SDS011;9782;52.930;15.562;2022-07-24T05:00:11;1.70;;;0.95;;
18689;SDS011;9782;52.930;15.562;2022-07-24T05:02:39;2.08;;;1.15;;
18689;SDS011;9782;52.930;15.562;2022-07-24T05:05:07;2.50;;;1.15;;
18689;SDS011;9782;52.930;15.562;2022-07-24T05:10:29;5.15;;;4.80;;
18689;SDS011;9782;52.930;15.562;2022-07-24T05:12:59;2.80;;;2.60;;
18689;SDS011;9782;52.930;15.562;2022-07-24T05:15:26;2.47;;;2.25;;
18689;SDS011;9782;52.930;15.562;2022-07-24T05:17:54;3.25;;;1.95;;
18689;SDS011;9782;52.930;15.562;2022-07-24T05:22:48;18.48;;;17.17;;
18689;SDS011;9782;52.930;15.562;2022-07-24T05:25:16;16.00;;;14.95;;
18689;SDS011;9782;52.930;15.562;2022-07-24T05:27:44;25.38;;;23.50;;
18689;SDS011;9782;52.930;15.562;2022-07-24T05:30:12;34.17;;;31.33;;
18689;SDS011;9782;52.930;15.562;2022-07-24T05:32:39;18.30;;;13.70;;
18689;SDS011;9782;52.930;15.562;2022-07-24T05:35:13;26.42;;;19.00;;
18689;SDS011;9782;52.930;15.562;2022-07-24T05:37:40;57.63;;;34.40;;
18689;SDS011;9782;52.930;15.562;2022-07-24T05:40:13;105.82;;;61.50;;
18689;SDS011;9782;52.930;15.562;2022-07-24T05:42:40;49.38;;;25.70;;
18689;SDS011;9782;52.930;15.562;2022-07-24T05:45:12;52.75;;;27.75;;
18689;SDS011;9782;52.930;15.562;2022-07-24T05:47:49;147.55;;;58.28;;
18689;SDS011;9782;52.930;15.562;2022-07-24T05:50:16;209.40;;;77.90;;
18689;SDS011;9782;52.930;15.562;2022-07-24T05:52:43;99.43;;;39.13;;
18689;SDS011;9782;52.930;15.562;2022-07-24T05:55:10;168.20;;;43.08;;
18689;SDS011;9782;52.930;15.562;2022-07-24T05:57:37;54.78;;;18.73;;
18689;SDS011;9782;52.930;15.562;2022-07-24T06:00:05;34.10;;;13.73;;
18689;SDS011;9782;52.930;15.562;2022-07-24T06:02:36;16.23;;;5.60;;
18689;SDS011;9782;52.930;15.562;2022-07-24T06:05:16;19.55;;;6.07;;
18689;SDS011;9782;52.930;15.562;2022-07-24T06:08:24;46.47;;;14.73;;
18689;SDS011;9782;52.930;15.562;2022-07-24T06:10:54;65.65;;;20.42;;
18689;SDS011;9782;52.930;15.562;2022-07-24T06:13:32;23.00;;;8.68;;
18689;SDS011;9782;52.930;15.562;2022-07-24T06:16:08;61.97;;;56.10;;
18689;SDS011;9782;52.930;15.562;2022-07-24T06:18:52;124.47;;;112.57;;
18689;SDS011;9782;52.930;15.562;2022-07-24T06:21:19;30.30;;;27.33;;
18689;SDS011;9782;52.930;15.562;2022-07-24T06:23:46;23.15;;;11.65;;
18689;SDS011;9782;52.930;15.562;2022-07-24T06:35:15;58.78;;;54.63;;
18689;SDS011;9782;52.930;15.562;2022-07-24T06:44:37;185.00;;;167.27;;
18689;SDS011;9782;52.930;15.562;2022-07-24T06:47:05;325.48;;;291.00;;
18689;SDS011;9782;52.930;15.562;2022-07-24T06:50:53;234.45;;;205.98;;
18689;SDS011;9782;52.930;15.562;2022-07-24T06:53:06;137.10;;;124.50;;
18689;SDS011;9782;52.930;15.562;2022-07-24T06:55:33;77.57;;;71.00;;
18689;SDS011;9782;52.930;15.562;2022-07-24T06:58:00;24.35;;;21.98;;
18689;SDS011;9782;52.930;15.562;2022-07-24T07:00:35;41.40;;;37.53;;
18689;SDS011;9782;52.930;15.562;2022-07-24T07:03:14;10.88;;;9.75;;
18689;SDS011;9782;52.930;15.562;2022-07-24T07:05:42;8.20;;;7.45;;
18689;SDS011;9782;52.930;15.562;2022-07-24T07:08:10;4.32;;;3.92;;
18689;SDS011;9782;52.930;15.562;2022-07-24T07:10:37;9.23;;;8.52;;
18689;SDS011;9782;52.930;15.562;2022-07-24T07:13:04;91.25;;;84.45;;
18689;SDS011;9782;52.930;15.562;2022-07-24T07:15:31;257.55;;;238.27;;
18689;SDS011;9782;52.930;15.562;2022-07-24T07:17:58;101.60;;;94.65;;
18689;SDS011;9782;52.930;15.562;2022-07-24T07:20:25;42.40;;;39.55;;
18689;SDS011;9782;52.930;15.562;2022-07-24T07:22:52;65.78;;;61.28;;
18689;SDS011;9782;52.930;15.562;2022-07-24T07:25:21;153.18;;;141.77;;
18689;SDS011;9782;52.930;15.562;2022-07-24T07:27:48;97.32;;;90.70;;
18689;SDS011;9782;52.930;15.562;2022-07-24T07:30:15;77.18;;;71.70;;
18689;SDS011;9782;52.930;15.562;2022-07-24T07:32:42;14.68;;;13.63;;
18689;SDS011;9782;52.930;15.562;2022-07-24T07:35:10;2.65;;;2.05;;
18689;SDS011;9782;52.930;15.562;2022-07-24T07:37:37;3.40;;;3.20;;
18689;SDS011;9782;52.930;15.562;2022-07-24T07:40:04;13.82;;;12.90;;
18689;SDS011;9782;52.930;15.562;2022-07-24T07:42:34;12.88;;;11.98;;
18689;SDS011;9782;52.930;15.562;2022-07-24T07:45:01;144.15;;;134.20;;
18689;SDS011;9782;52.930;15.562;2022-07-24T07:47:45;213.18;;;197.88;;
18689;SDS011;9782;52.930;15.562;2022-07-24T07:50:25;181.85;;;169.02;;
18689;SDS011;9782;52.930;15.562;2022-07-24T07:53:04;83.68;;;77.90;;
18689;SDS011;9782;52.930;15.562;2022-07-24T07:55:48;74.78;;;69.82;;
18689;SDS011;9782;52.930;15.562;2022-07-24T07:58:34;52.88;;;49.22;;
18689;SDS011;9782;52.930;15.562;2022-07-24T08:01:15;151.40;;;140.95;;
18689;SDS011;9782;52.930;15.562;2022-07-24T08:03:45;189.30;;;176.10;;
18689;SDS011;9782;52.930;15.562;2022-07-24T08:06:37;154.45;;;143.45;;
18689;SDS011;9782;52.930;15.562;2022-07-24T08:09:13;48.70;;;45.30;;
18689;SDS011;9782;52.930;15.562;2022-07-24T08:12:30;21.73;;;20.23;;
18689;SDS011;9782;52.930;15.562;2022-07-24T08:15:00;46.95;;;43.75;;
18689;SDS011;9782;52.930;15.562;2022-07-24T08:17:36;57.97;;;54.03;;
18689;SDS011;9782;52.930;15.562;2022-07-24T08:20:11;60.45;;;56.42;;
18689;SDS011;9782;52.930;15.562;2022-07-24T08:22:38;48.42;;;45.17;;
18689;SDS011;9782;52.930;15.562;2022-07-24T08:25:28;2.92;;;2.58;;
18689;SDS011;9782;52.930;15.562;2022-07-24T08:28:19;3.65;;;3.33;;
18689;SDS011;9782;52.930;15.562;2022-07-24T08:30:49;2.60;;;1.00;;
18689;SDS011;9782;52.930;15.562;2022-07-24T08:33:29;1.50;;;1.40;;
18689;SDS011;9782;52.930;15.562;2022-07-24T08:36:59;9.95;;;9.32;;
18689;SDS011;9782;52.930;15.562;2022-07-24T08:39:06;193.00;;;180.20;;
18689;SDS011;9782;52.930;15.562;2022-07-24T08:41:33;33.38;;;30.98;;
18689;SDS011;9782;52.930;15.562;2022-07-24T08:44:01;13.02;;;12.02;;
18689;SDS011;9782;52.930;15.562;2022-07-24T08:46:30;6.90;;;6.53;;
18689;SDS011;9782;52.930;15.562;2022-07-24T08:48:58;2.78;;;2.40;;
18689;SDS011;9782;52.930;15.562;2022-07-24T08:51:28;15.48;;;14.48;;
18689;SDS011;9782;52.930;15.562;2022-07-24T08:54:16;3.28;;;1.95;;
18689;SDS011;9782;52.930;15.562;2022-07-24T08:56:44;5.25;;;4.95;;
18689;SDS011;9782;52.930;15.562;2022-07-24T08:59:15;80.55;;;75.18;;
18689;SDS011;9782;52.930;15.562;2022-07-24T09:01:46;134.07;;;124.50;;
18689;SDS011;9782;52.930;15.562;2022-07-24T09:04:32;154.68;;;143.57;;
18689;SDS011;9782;52.930;15.562;2022-07-24T09:07:02;203.48;;;188.57;;
18689;SDS011;9782;52.930;15.562;2022-07-24T09:09:35;355.05;;;328.10;;
18689;SDS011;9782;52.930;15.562;2022-07-24T09:12:07;241.80;;;223.27;;
18689;SDS011;9782;52.930;15.562;2022-07-24T09:14:36;182.68;;;169.15;;
18689;SDS011;9782;52.930;15.562;2022-07-24T09:17:07;214.82;;;198.50;;
18689;SDS011;9782;52.930;15.562;2022-07-24T09:19:45;140.20;;;129.93;;
18689;SDS011;9782;52.930;15.562;2022-07-24T09:22:16;130.88;;;120.93;;
18689;SDS011;9782;52.930;15.562;2022-07-24T09:24:58;498.65;;;460.67;;
18689;SDS011;9782;52.930;15.562;2022-07-24T09:27:34;190.35;;;176.02;;
18689;SDS011;9782;52.930;15.562;2022-07-24T09:30:02;172.55;;;159.75;;
18689;SDS011;9782;52.930;15.562;2022-07-24T09:32:38;528.95;;;488.95;;
18689;SDS011;9782;52.930;15.562;2022-07-24T09:35:06;732.08;;;676.22;;
18689;SDS011;9782;52.930;15.562;2022-07-24T09:37:52;524.50;;;484.70;;
18689;SDS011;9782;52.930;15.562;2022-07-24T09:40:30;962.00;;;889.00;;
18689;SDS011;9782;52.930;15.562;2022-07-24T09:43:15;778.03;;;718.72;;
18689;SDS011;9782;52.930;15.562;2022-07-24T09:45:51;966.33;;;893.88;;
18689;SDS011;9782;52.930;15.562;2022-07-24T09:48:22;1068.28;;;982.20;;
18689;SDS011;9782;52.930;15.562;2022-07-24T09:50:50;879.80;;;814.60;;
18689;SDS011;9782;52.930;15.562;2022-07-24T09:53:20;735.30;;;680.25;;
18689;SDS011;9782;52.930;15.562;2022-07-24T09:56:02;656.88;;;607.28;;
18689;SDS011;9782;52.930;15.562;2022-07-24T09:58:32;693.30;;;641.45;;
18689;SDS011;9782;52.930;15.562;2022-07-24T10:01:04;635.95;;;588.40;;
18689;SDS011;9782;52.930;15.562;2022-07-24T10:03:38;640.85;;;592.63;;
18689;SDS011;9782;52.930;15.562;2022-07-24T10:06:14;593.55;;;549.45;;
18689;SDS011;9782;52.930;15.562;2022-07-24T10:08:46;777.55;;;720.47;;
18689;SDS011;9782;52.930;15.562;2022-07-24T10:11:15;895.05;;;829.70;;
18689;SDS011;9782;52.930;15.562;2022-07-24T10:13:44;889.25;;;823.70;;
18689;SDS011;9782;52.930;15.562;2022-07-24T10:19:06;951.80;;;880.53;;
18689;SDS011;9782;52.930;15.562;2022-07-24T10:21:37;789.03;;;730.83;;
18689;SDS011;9782;52.930;15.562;2022-07-24T10:24:27;750.80;;;695.88;;
18689;SDS011;9782;52.930;15.562;2022-07-24T10:27:22;784.08;;;726.58;;
18689;SDS011;9782;52.930;15.562;2022-07-24T10:29:52;579.92;;;536.92;;
18689;SDS011;9782;52.930;15.562;2022-07-24T10:32:20;585.03;;;541.33;;
18689;SDS011;9782;52.930;15.562;2022-07-24T10:34:50;491.35;;;455.33;;
18689;SDS011;9782;52.930;15.562;2022-07-24T10:37:28;456.55;;;423.45;;
18689;SDS011;9782;52.930;15.562;2022-07-24T10:40:20;439.55;;;407.60;;
18689;SDS011;9782;52.930;15.562;2022-07-24T10:43:10;381.08;;;353.77;;
18689;SDS011;9782;52.930;15.562;2022-07-24T10:45:39;346.70;;;321.73;;
18689;SDS011;9782;52.930;15.562;2022-07-24T10:57:44;542.45;;;501.65;;
18689;SDS011;9782;52.930;15.562;2022-07-24T11:00:30;583.17;;;539.25;;
18689;SDS011;9782;52.930;15.562;2022-07-24T11:03:21;689.17;;;637.67;;
18689;SDS011;9782;52.930;15.562;2022-07-24T11:09:30;647.70;;;598.95;;
18689;SDS011;9782;52.930;15.562;2022-07-24T11:12:25;603.75;;;558.28;;
18689;SDS011;9782;52.930;15.562;2022-07-24T11:15:06;667.53;;;618.03;;
18689;SDS011;9782;52.930;15.562;2022-07-24T11:18:08;671.05;;;621.13;;
18689;SDS011;9782;52.930;15.562;2022-07-24T11:20:40;716.13;;;662.85;;
18689;SDS011;9782;52.930;15.562;2022-07-24T11:23:19;763.95;;;706.72;;
18689;SDS011;9782;52.930;15.562;2022-07-24T11:29:12;765.05;;;707.45;;
18689;SDS011;9782;52.930;15.562;2022-07-24T11:31:40;622.08;;;575.20;;
18689;SDS011;9782;52.930;15.562;2022-07-24T11:34:11;627.90;;;580.25;;
18689;SDS011;9782;52.930;15.562;2022-07-24T11:36:48;586.60;;;542.75;;
18689;SDS011;9782;52.930;15.562;2022-07-24T11:39:25;523.83;;;485.08;;
18689;SDS011;9782;52.930;15.562;2022-07-24T11:41:55;544.83;;;504.20;;
18689;SDS011;9782;52.930;15.562;2022-07-24T11:44:24;501.20;;;464.13;;
18689;SDS011;9782;52.930;15.562;2022-07-24T11:46:53;519.75;;;481.05;;
18689;SDS011;9782;52.930;15.562;2022-07-24T11:49:22;513.38;;;475.15;;
18689;SDS011;9782;52.930;15.562;2022-07-24T11:51:51;531.90;;;492.02;;
18689;SDS011;9782;52.930;15.562;2022-07-24T11:54:28;485.95;;;450.17;;
18689;SDS011;9782;52.930;15.562;2022-07-24T11:57:02;531.05;;;491.48;;
18689;SDS011;9782;52.930;15.562;2022-07-24T11:59:32;640.58;;;592.83;;
18689;SDS011;9782;52.930;15.562;2022-07-24T12:02:08;656.80;;;607.47;;
18689;SDS011;9782;52.930;15.562;2022-07-24T12:04:37;709.05;;;656.15;;
18689;SDS011;9782;52.930;15.562;2022-07-24T12:07:05;642.28;;;593.97;;
18689;SDS011;9782;52.930;15.562;2022-07-24T12:09:34;624.28;;;577.35;;
18689;SDS011;9782;52.930;15.562;2022-07-24T12:12:17;550.10;;;508.80;;
18689;SDS011;9782;52.930;15.562;2022-07-24T12:15:00;504.92;;;467.58;;
18689;SDS011;9782;52.930;15.562;2022-07-24T12:17:29;471.52;;;436.63;;
18689;SDS011;9782;52.930;15.562;2022-07-24T12:19:59;444.48;;;411.92;;
18689;SDS011;9782;52.930;15.562;2022-07-24T12:22:29;445.67;;;413.25;;
18689;SDS011;9782;52.930;15.562;2022-07-24T12:25:01;451.30;;;418.20;;
18689;SDS011;9782;52.930;15.562;2022-07-24T12:27:32;468.27;;;433.63;;
18689;SDS011;9782;52.930;15.562;2022-07-24T12:33:09;484.90;;;448.77;;
18689;SDS011;9782;52.930;15.562;2022-07-24T12:35:54;473.73;;;438.83;;
18689;SDS011;9782;52.930;15.562;2022-07-24T12:38:24;471.80;;;436.85;;
18689;SDS011;9782;52.930;15.562;2022-07-24T12:41:01;491.08;;;454.63;;
18689;SDS011;9782;52.930;15.562;2022-07-24T12:43:30;484.73;;;448.55;;
18689;SDS011;9782;52.930;15.562;2022-07-24T12:46:04;357.42;;;332.05;;
18689;SDS011;9782;52.930;15.562;2022-07-24T12:48:32;437.90;;;405.80;;
18689;SDS011;9782;52.930;15.562;2022-07-24T12:51:01;329.67;;;305.92;;
18689;SDS011;9782;52.930;15.562;2022-07-24T12:53:30;372.10;;;345.58;;
18689;SDS011;9782;52.930;15.562;2022-07-24T12:56:20;375.00;;;348.20;;
18689;SDS011;9782;52.930;15.562;2022-07-24T12:58:59;349.30;;;324.50;;
18689;SDS011;9782;52.930;15.562;2022-07-24T13:01:43;401.77;;;372.63;;
18689;SDS011;9782;52.930;15.562;2022-07-24T13:04:18;407.88;;;378.15;;
18689;SDS011;9782;52.930;15.562;2022-07-24T13:06:47;380.95;;;353.88;;
18689;SDS011;9782;52.930;15.562;2022-07-24T13:09:25;395.63;;;367.23;;
18689;SDS011;9782;52.930;15.562;2022-07-24T13:11:55;398.38;;;369.50;;
18689;SDS011;9782;52.930;15.562;2022-07-24T13:14:23;383.52;;;355.90;;
18689;SDS011;9782;52.930;15.562;2022-07-24T13:16:51;407.63;;;378.08;;
18689;SDS011;9782;52.930;15.562;2022-07-24T13:19:27;406.08;;;376.55;;
18689;SDS011;9782;52.930;15.562;2022-07-24T13:21:57;356.67;;;330.88;;
18689;SDS011;9782;52.930;15.562;2022-07-24T13:24:24;387.30;;;359.60;;
18689;SDS011;9782;52.930;15.562;2022-07-24T13:26:51;315.80;;;293.75;;
18689;SDS011;9782;52.930;15.562;2022-07-24T13:29:20;254.38;;;236.93;;
18689;SDS011;9782;52.930;15.562;2022-07-24T13:31:49;250.27;;;233.07;;
18689;SDS011;9782;52.930;15.562;2022-07-24T13:34:16;244.00;;;227.18;;
18689;SDS011;9782;52.930;15.562;2022-07-24T13:36:44;265.55;;;247.18;;
18689;SDS011;9782;52.930;15.562;2022-07-24T13:39:16;244.70;;;228.10;;
18689;SDS011;9782;52.930;15.562;2022-07-24T13:41:43;244.68;;;227.93;;
18689;SDS011;9782;52.930;15.562;2022-07-24T13:44:10;205.80;;;191.82;;
18689;SDS011;9782;52.930;15.562;2022-07-24T13:46:47;222.20;;;207.30;;
18689;SDS011;9782;52.930;15.562;2022-07-24T13:49:15;200.35;;;186.85;;
18689;SDS011;9782;52.930;15.562;2022-07-24T13:51:44;231.80;;;215.90;;
18689;SDS011;9782;52.930;15.562;2022-07-24T13:54:12;192.07;;;179.20;;
18689;SDS011;9782;52.930;15.562;2022-07-24T13:56:43;199.38;;;185.75;;
18689;SDS011;9782;52.930;15.562;2022-07-24T13:59:10;220.10;;;204.82;;
18689;SDS011;9782;52.930;15.562;2022-07-24T14:01:40;196.85;;;183.60;;
18689;SDS011;9782;52.930;15.562;2022-07-24T14:04:29;217.18;;;202.52;;
18689;SDS011;9782;52.930;15.562;2022-07-24T14:06:56;245.98;;;229.13;;
18689;SDS011;9782;52.930;15.562;2022-07-24T14:09:24;209.63;;;195.43;;
18689;SDS011;9782;52.930;15.562;2022-07-24T14:11:53;238.18;;;221.77;;
18689;SDS011;9782;52.930;15.562;2022-07-24T14:14:20;241.25;;;224.32;;
18689;SDS011;9782;52.930;15.562;2022-07-24T14:16:47;214.25;;;199.73;;
18689;SDS011;9782;52.930;15.562;2022-07-24T14:19:15;252.10;;;234.60;;
18689;SDS011;9782;52.930;15.562;2022-07-24T14:21:45;229.57;;;213.93;;
18689;SDS011;9782;52.930;15.562;2022-07-24T14:24:13;238.35;;;221.75;;
18689;SDS011;9782;52.930;15.562;2022-07-24T14:26:41;270.50;;;251.88;;
18689;SDS011;9782;52.930;15.562;2022-07-24T14:29:08;258.50;;;240.68;;
18689;SDS011;9782;52.930;15.562;2022-07-24T14:31:35;258.67;;;240.85;;
18689;SDS011;9782;52.930;15.562;2022-07-24T14:34:03;277.85;;;258.58;;
18689;SDS011;9782;52.930;15.562;2022-07-24T14:36:30;262.33;;;244.45;;
18689;SDS011;9782;52.930;15.562;2022-07-24T14:38:58;279.50;;;260.10;;
18689;SDS011;9782;52.930;15.562;2022-07-24T14:41:26;278.45;;;258.88;;
18689;SDS011;9782;52.930;15.562;2022-07-24T14:43:53;328.88;;;305.90;;
18689;SDS011;9782;52.930;15.562;2022-07-24T14:46:20;352.48;;;327.52;;
18689;SDS011;9782;52.930;15.562;2022-07-24T14:48:47;428.00;;;396.95;;
18689;SDS011;9782;52.930;15.562;2022-07-24T14:51:14;523.95;;;484.70;;
18689;SDS011;9782;52.930;15.562;2022-07-24T14:53:41;338.77;;;314.58;;
18689;SDS011;9782;52.930;15.562;2022-07-24T14:56:10;331.80;;;308.67;;
18689;SDS011;9782;52.930;15.562;2022-07-24T14:58:38;269.02;;;250.43;;
18689;SDS011;9782;52.930;15.562;2022-07-24T15:01:05;263.73;;;245.57;;
18689;SDS011;9782;52.930;15.562;2022-07-24T15:03:32;259.90;;;241.90;;
18689;SDS011;9782;52.930;15.562;2022-07-24T15:05:59;264.55;;;246.63;;
18689;SDS011;9782;52.930;15.562;2022-07-24T15:08:26;303.17;;;281.75;;
18689;SDS011;9782;52.930;15.562;2022-07-24T15:10:53;334.92;;;311.75;;
18689;SDS011;9782;52.930;15.562;2022-07-24T15:13:22;327.73;;;304.30;;
18689;SDS011;9782;52.930;15.562;2022-07-24T15:15:49;429.83;;;398.73;;
18689;SDS011;9782;52.930;15.562;2022-07-24T15:18:16;431.17;;;399.95;;
18689;SDS011;9782;52.930;15.562;2022-07-24T15:20:43;408.92;;;379.33;;
18689;SDS011;9782;52.930;15.562;2022-07-24T15:23:10;428.15;;;397.10;;
18689;SDS011;9782;52.930;15.562;2022-07-24T15:25:37;544.25;;;503.73;;
18689;SDS011;9782;52.930;15.562;2022-07-24T15:28:04;539.13;;;498.83;;